Time;durP1;ratioP1;P1;durP2;ratioP2;P2;SDS_P1;SDS_P2;PMS_P1;PMS_P2;Temp;Humidity;BMP_temperature;BMP_pressure;BME280_temperature;BME280_humidity;BME280_pressure;Samples;Min_cycle;Max_cycle;Signal;HPM_P1;HPM_P2
2021/10/31 00:01:19;;;;;;;3.80;3.40;;;;;;;12.20;100.00;97624.34;5054336;28;20215;-65
2021/10/31 00:03:45;;;;;;;3.37;3.07;;;;;;;12.18;100.00;97641.34;5054070;28;20256;-65
2021/10/31 00:06:12;;;;;;;3.53;3.17;;;;;;;12.15;100.00;97636.28;5054181;28;20216;-65
2021/10/31 00:08:40;;;;;;;3.87;3.47;;;;;;;12.16;100.00;97628.22;5054254;28;20592;-65
2021/10/31 00:11:06;;;;;;;4.27;3.70;;;;;;;12.15;100.00;97628.34;5054675;28;20215;-65
2021/10/31 00:13:33;;;;;;;4.10;3.70;;;;;;;12.15;100.00;97630.97;5053720;28;20208;-65
2021/10/31 00:16:00;;;;;;;4.13;3.73;;;;;;;12.15;100.00;97633.63;5054672;28;20246;-65
2021/10/31 00:18:26;;;;;;;4.27;3.73;;;;;;;12.15;100.00;97638.94;5056729;28;20215;-65
2021/10/31 00:20:53;;;;;;;5.37;4.20;;;;;;;12.15;100.00;97638.94;5056731;28;20589;-65
2021/10/31 00:23:19;;;;;;;5.80;4.10;;;;;;;12.11;100.00;97641.00;5057865;28;20247;-65
2021/10/31 00:25:47;;;;;;;5.03;4.10;;;;;;;12.12;100.00;97648.00;5054973;28;20258;-65
2021/10/31 00:28:14;;;;;;;5.00;4.30;;;;;;;12.14;100.00;97650.50;5053605;28;20219;-65
2021/10/31 00:30:40;;;;;;;4.47;3.80;;;;;;;12.14;100.00;97655.81;5059106;28;20218;-65
2021/10/31 00:33:08;;;;;;;4.63;4.20;;;;;;;12.15;100.00;97657.47;5057688;28;20218;-65
2021/10/31 00:35:35;;;;;;;6.07;5.00;;;;;;;12.12;100.00;97631.25;5057671;28;20230;-65
2021/10/31 00:38:01;;;;;;;5.63;4.67;;;;;;;12.13;100.00;97643.53;5057507;28;20219;-65
2021/10/31 00:40:27;;;;;;;4.93;4.20;;;;;;;12.14;100.00;97661.09;5058700;28;20217;-65
2021/10/31 00:42:55;;;;;;;4.40;4.00;;;;;;;12.15;100.00;97650.38;5055822;28;20232;-65
2021/10/31 00:45:22;;;;;;;4.33;3.73;;;;;;;12.18;100.00;97651.94;5057302;28;20688;-65
2021/10/31 00:47:49;;;;;;;4.90;4.20;;;;;;;12.17;100.00;97647.63;5057562;28;20227;-65
2021/10/31 00:50:18;;;;;;;4.30;3.90;;;;;;;12.10;100.00;97654.41;5058743;28;20216;-65
2021/10/31 00:52:45;;;;;;;5.67;4.70;;;;;;;12.03;100.00;97663.78;5057230;28;20234;-65
2021/10/31 00:55:11;;;;;;;5.27;4.77;;;;;;;11.88;100.00;97660.63;5057040;28;20220;-65
2021/10/31 00:57:38;;;;;;;6.60;4.80;;;;;;;11.74;100.00;97657.41;5057321;28;20239;-65
2021/10/31 01:00:09;;;;;;;5.80;4.60;;;;;;;11.56;100.00;97656.22;5051288;28;20581;-65
2021/10/31 01:02:36;;;;;;;4.83;4.30;;;;;;;11.38;100.00;97660.34;5040769;28;20247;-65
2021/10/31 01:05:05;;;;;;;5.80;4.10;;;;;;;11.22;100.00;97670.44;5040629;28;20218;-65
2021/10/31 01:07:46;;;;;;;5.03;4.53;;;;;;;11.12;100.00;97664.22;5041005;28;20585;-65
2021/10/31 01:10:22;;;;;;;5.03;3.93;;;;;;;10.98;100.00;97661.78;5038950;28;20246;-65
2021/10/31 01:13:26;;;;;;;4.77;4.30;;;;;;;10.84;100.00;97659.38;5047442;28;20234;-64
2021/10/31 01:16:11;;;;;;;4.53;4.13;;;;;;;10.82;100.00;97661.31;5058089;28;20220;-65
2021/10/31 01:18:53;;;;;;;3.93;3.53;;;;;;;10.83;100.00;97652.41;5057101;28;20214;-65
2021/10/31 01:21:31;;;;;;;4.17;3.77;;;;;;;10.78;100.00;97649.28;5056586;28;20225;-65
2021/10/31 01:24:14;;;;;;;5.17;3.90;;;;;;;10.72;100.00;97655.03;5056614;28;20329;-65
2021/10/31 01:26:52;;;;;;;3.90;3.50;;;;;;;10.68;100.00;97661.50;5056934;28;20241;-65
2021/10/31 01:29:33;;;;;;;4.83;4.10;;;;;;;10.69;100.00;97655.25;5056284;28;20216;-65
2021/10/31 01:32:09;;;;;;;4.23;3.70;;;;;;;10.62;100.00;97654.06;5042837;28;20221;-65
2021/10/31 01:34:52;;;;;;;4.40;3.80;;;;;;;10.56;100.00;97657.16;5056674;28;20212;-65
2021/10/31 01:37:30;;;;;;;5.17;4.00;;;;;;;10.49;100.00;97663.88;5056620;28;20664;-65
2021/10/31 01:40:05;;;;;;;5.00;4.50;;;;;;;10.43;100.00;97656.41;5056725;28;20281;-65
2021/10/31 01:42:40;;;;;;;4.83;4.33;;;;;;;10.45;100.00;97655.34;5050938;28;20238;-65
2021/10/31 01:45:14;;;;;;;5.00;4.07;;;;;;;10.46;100.00;97658.84;5057513;28;20223;-65
2021/10/31 01:47:48;;;;;;;6.07;4.40;;;;;;;10.41;100.00;97666.28;5042412;28;20220;-64
2021/10/31 01:50:33;;;;;;;6.13;4.80;;;;;;;10.40;100.00;97661.94;5056448;28;20240;-65
2021/10/31 01:53:05;;;;;;;4.67;4.17;;;;;;;10.35;100.00;97657.00;5057370;28;20275;-65
2021/10/31 01:55:36;;;;;;;4.90;4.33;;;;;;;10.32;100.00;97656.38;5041874;28;20209;-65
2021/10/31 01:58:04;;;;;;;5.70;4.70;;;;;;;10.27;100.00;97651.47;5056047;28;20216;-65
2021/10/31 02:00:33;;;;;;;5.20;4.70;;;;;;;10.23;100.00;97651.81;5051437;28;20704;-65
2021/10/31 02:03:02;;;;;;;5.30;4.77;;;;;;;10.19;100.00;97655.63;5051191;28;20244;-65
2021/10/31 02:05:33;;;;;;;6.47;5.07;;;;;;;10.18;100.00;97659.22;5051152;28;20216;-65
2021/10/31 02:08:04;;;;;;;6.00;5.37;;;;;;;10.15;100.00;97659.47;5051508;28;20216;-65
2021/10/31 02:10:32;;;;;;;6.47;5.00;;;;;;;10.12;100.00;97651.78;5047650;28;20213;-65
2021/10/31 02:13:01;;;;;;;4.90;4.40;;;;;;;10.08;100.00;97659.09;5039631;28;20678;-65
2021/10/31 02:15:28;;;;;;;5.50;4.90;;;;;;;10.04;100.00;97652.34;5055632;28;20600;-65
2021/10/31 02:17:56;;;;;;;5.40;4.87;;;;;;;10.05;100.00;97661.09;5055900;28;20226;-64
2021/10/31 02:20:24;;;;;;;5.77;5.03;;;;;;;10.03;100.00;97655.06;5055521;28;20264;-64
2021/10/31 02:22:53;;;;;;;5.80;5.17;;;;;;;10.01;100.00;97659.59;5039490;28;20239;-65
2021/10/31 02:25:21;;;;;;;5.90;5.30;;;;;;;10.01;100.00;97651.69;5055570;28;20243;-64
2021/10/31 02:27:47;;;;;;;6.60;5.70;;;;;;;9.99;100.00;97645.69;5053880;28;20225;-65
2021/10/31 02:30:15;;;;;;;6.53;5.87;;;;;;;9.94;100.00;97646.03;5055982;28;20219;-65
2021/10/31 02:32:41;;;;;;;5.87;5.27;;;;;;;9.92;100.00;97636.56;5056259;28;20220;-65
2021/10/31 02:35:11;;;;;;;5.93;5.20;;;;;;;9.87;100.00;97634.25;5055120;28;20221;-65
2021/10/31 02:37:39;;;;;;;6.30;5.67;;;;;;;9.85;100.00;97643.25;5055428;28;20220;-65
2021/10/31 02:40:09;;;;;;;6.80;5.80;;;;;;;9.84;100.00;97638.94;5055312;28;20217;-65
2021/10/31 02:42:35;;;;;;;7.17;5.70;;;;;;;9.84;100.00;97633.66;5055356;28;20278;-65
2021/10/31 02:45:02;;;;;;;6.43;5.83;;;;;;;9.80;100.00;97629.53;5055240;28;20223;-65
2021/10/31 02:47:33;;;;;;;6.50;5.80;;;;;;;9.77;100.00;97637.66;5054972;28;20304;-65
2021/10/31 02:50:01;;;;;;;7.17;6.20;;;;;;;9.74;100.00;97648.47;5055975;28;20215;-65
2021/10/31 02:52:33;;;;;;;6.87;6.17;;;;;;;9.71;100.00;97644.25;5054996;28;20674;-65
2021/10/31 02:55:07;;;;;;;7.63;6.47;;;;;;;9.62;100.00;97649.34;5053294;28;20216;-65
2021/10/31 02:57:42;;;;;;;7.57;6.30;;;;;;;9.79;100.00;97644.53;5051668;28;20221;-65
2021/10/31 03:00:13;;;;;;;6.30;5.50;;;;;;;9.99;100.00;97646.53;5056251;28;20207;-65
2021/10/31 03:02:41;;;;;;;6.33;5.20;;;;;;;10.19;100.00;97645.91;5054977;28;20223;-64
2021/10/31 03:05:08;;;;;;;5.93;5.33;;;;;;;10.35;100.00;97645.59;5054748;28;20220;-65
2021/10/31 03:07:36;;;;;;;6.03;5.43;;;;;;;10.44;100.00;97644.88;5054744;28;20221;-65
2021/10/31 03:10:02;;;;;;;6.07;5.47;;;;;;;10.48;100.00;97643.72;5053717;28;20586;-65
2021/10/31 03:12:29;;;;;;;6.30;5.70;;;;;;;10.52;100.00;97635.41;5054565;28;20213;-65
2021/10/31 03:14:57;;;;;;;6.00;5.40;;;;;;;10.51;100.00;97643.50;5054731;28;20223;-65
2021/10/31 03:17:23;;;;;;;5.50;5.00;;;;;;;10.48;100.00;97636.63;5054501;28;20222;-65
2021/10/31 03:19:50;;;;;;;5.97;5.23;;;;;;;10.49;100.00;97643.59;5055643;28;20673;-65
2021/10/31 03:22:17;;;;;;;6.30;5.27;;;;;;;10.48;100.00;97638.41;5053452;28;20218;-64
2021/10/31 03:24:43;;;;;;;5.93;5.33;;;;;;;10.44;100.00;97650.16;5054570;28;20239;-65
2021/10/31 03:27:10;;;;;;;6.37;4.87;;;;;;;10.43;100.00;97648.50;5054661;28;20244;-64
2021/10/31 03:29:36;;;;;;;5.20;4.70;;;;;;;10.45;100.00;97647.41;5055867;28;20211;-65
2021/10/31 03:32:05;;;;;;;6.10;5.10;;;;;;;10.48;100.00;97649.00;5054524;28;20224;-65
2021/10/31 03:34:31;;;;;;;6.40;5.47;;;;;;;10.45;100.00;97646.59;5054183;28;20697;-65
2021/10/31 03:36:58;;;;;;;6.03;5.17;;;;;;;10.33;100.00;97647.53;5054607;28;20310;-65
2021/10/31 03:39:24;;;;;;;6.07;5.47;;;;;;;10.20;100.00;97641.47;5055574;28;20612;-65
2021/10/31 03:41:51;;;;;;;8.30;6.30;;;;;;;10.11;100.00;97642.16;5054401;28;20583;-65
2021/10/31 03:44:19;;;;;;;7.17;6.00;;;;;;;10.03;100.00;97644.53;5054218;28;20247;-65
2021/10/31 03:46:46;;;;;;;7.17;6.43;;;;;;;10.01;100.00;97639.34;5052649;28;20221;-64
2021/10/31 03:49:15;;;;;;;8.00;6.93;;;;;;;9.99;100.00;97630.72;5055671;28;20220;-65
2021/10/31 03:51:42;;;;;;;8.00;6.70;;;;;;;9.98;100.00;97630.81;5053522;28;20587;-65
2021/10/31 03:54:09;;;;;;;8.80;7.37;;;;;;;9.93;100.00;97622.38;5054233;28;20239;-65
2021/10/31 03:56:35;;;;;;;9.10;7.57;;;;;;;9.85;100.00;97630.03;5054276;28;20227;-65
2021/10/31 03:59:02;;;;;;;9.33;7.77;;;;;;;9.78;100.00;97623.53;5055464;28;20220;-65
2021/10/31 04:01:31;;;;;;;7.43;6.70;;;;;;;9.71;100.00;97627.56;5053904;28;20219;-64
2021/10/31 04:03:57;;;;;;;10.23;6.77;;;;;;;9.65;100.00;97618.31;5054055;28;20251;-64
2021/10/31 04:06:25;;;;;;;8.30;6.80;;;;;;;9.69;100.00;97616.28;5054179;28;20212;-65
2021/10/31 04:08:52;;;;;;;7.20;6.50;;;;;;;9.72;100.00;97618.72;5055244;28;20216;-65
2021/10/31 04:11:18;;;;;;;6.97;6.27;;;;;;;9.79;100.00;97614.66;5052736;28;20211;-65
2021/10/31 04:13:45;;;;;;;8.00;6.70;;;;;;;9.88;100.00;97627.16;5052209;28;20239;-65
2021/10/31 04:16:11;;;;;;;7.93;6.83;;;;;;;9.97;100.00;97618.56;5053974;28;20231;-65
2021/10/31 04:18:38;;;;;;;7.33;6.53;;;;;;;10.04;100.00;97619.84;5055446;28;20211;-65
2021/10/31 04:21:04;;;;;;;7.27;6.57;;;;;;;10.10;100.00;97619.38;5054191;28;20208;-65
2021/10/31 04:23:32;;;;;;;8.57;6.90;;;;;;;10.12;100.00;97625.38;5053701;28;20705;-64
2021/10/31 04:25:59;;;;;;;7.97;6.90;;;;;;;10.08;100.00;97626.53;5054132;28;20243;-65
2021/10/31 04:28:25;;;;;;;7.90;6.87;;;;;;;10.03;100.00;97626.03;5055048;28;20219;-64
2021/10/31 04:30:52;;;;;;;8.67;7.30;;;;;;;10.00;100.00;97623.63;5053666;28;20679;-64
2021/10/31 04:33:18;;;;;;;8.27;7.47;;;;;;;9.95;100.00;97620.47;5054011;28;20220;-65
2021/10/31 04:35:45;;;;;;;7.73;6.67;;;;;;;9.82;100.00;97619.69;5053632;28;20666;-65
2021/10/31 04:38:14;;;;;;;8.50;6.80;;;;;;;9.72;100.00;97618.72;5054951;28;20223;-65
2021/10/31 04:40:42;;;;;;;7.90;7.17;;;;;;;9.63;100.00;97622.88;5037420;28;20719;-64
2021/10/31 04:43:11;;;;;;;8.97;7.97;;;;;;;9.53;100.00;97621.84;5053390;28;20669;-65
2021/10/31 04:45:39;;;;;;;8.47;7.63;;;;;;;9.50;100.00;97614.19;5053601;28;20239;-65
2021/10/31 04:48:06;;;;;;;10.63;8.27;;;;;;;9.50;100.00;97618.59;5054963;28;20259;-65
2021/10/31 04:50:33;;;;;;;8.73;7.50;;;;;;;9.47;100.00;97618.81;5054067;28;20245;-65
2021/10/31 04:52:59;;;;;;;9.33;8.33;;;;;;;9.48;100.00;97621.34;5053554;28;20276;-65
2021/10/31 04:55:26;;;;;;;10.77;8.70;;;;;;;9.54;100.00;97612.16;5053461;28;20223;-65
2021/10/31 04:57:55;;;;;;;9.17;8.17;;;;;;;9.58;100.00;97616.22;5054661;28;20697;-65
2021/10/31 05:00:21;;;;;;;10.03;8.47;;;;;;;9.62;100.00;97617.69;5043557;28;20453;-65
2021/10/31 05:02:47;;;;;;;10.90;8.53;;;;;;;9.67;100.00;97620.84;5054210;28;20216;-64
2021/10/31 05:05:14;;;;;;;9.67;8.27;;;;;;;9.74;100.00;97622.06;5055412;28;20243;-64
2021/10/31 05:07:41;;;;;;;9.63;7.90;;;;;;;9.76;100.00;97620.16;5057911;28;20222;-65
2021/10/31 05:10:08;;;;;;;9.37;8.27;;;;;;;9.78;100.00;97607.72;5057306;28;20219;-65
2021/10/31 05:12:34;;;;;;;11.13;8.47;;;;;;;9.74;100.00;97606.25;5057156;28;20216;-65
2021/10/31 05:15:02;;;;;;;10.87;8.10;;;;;;;9.73;100.00;97607.19;5057078;28;20216;-65
2021/10/31 05:17:29;;;;;;;10.93;8.93;;;;;;;9.71;100.00;97590.63;5057773;28;20219;-65
2021/10/31 05:19:55;;;;;;;8.60;7.70;;;;;;;9.68;100.00;97606.69;5057387;28;20216;-65
2021/10/31 05:22:22;;;;;;;9.53;8.47;;;;;;;9.66;100.00;97604.16;5056566;28;20222;-65
2021/10/31 05:24:48;;;;;;;9.33;7.83;;;;;;;9.69;100.00;97603.09;5056551;28;20242;-65
2021/10/31 05:27:15;;;;;;;8.50;7.43;;;;;;;9.71;100.00;97595.91;5041302;28;20556;-65
2021/10/31 05:29:41;;;;;;;8.67;7.77;;;;;;;9.74;100.00;97593.03;5057606;28;20216;-65
2021/10/31 05:32:09;;;;;;;9.53;8.33;;;;;;;9.67;100.00;97592.66;5055133;28;20569;-65
2021/10/31 05:34:36;;;;;;;8.77;7.87;;;;;;;9.58;100.00;97581.94;5056617;28;20222;-65
2021/10/31 05:37:03;;;;;;;9.10;8.20;;;;;;;9.55;100.00;97584.81;5056592;28;20222;-65
2021/10/31 05:39:29;;;;;;;10.37;8.63;;;;;;;9.52;100.00;97579.75;5055248;28;20272;-65
2021/10/31 05:41:56;;;;;;;10.03;8.70;;;;;;;9.47;100.00;97577.44;5056601;28;20330;-65
2021/10/31 05:44:22;;;;;;;10.00;8.40;;;;;;;9.40;100.00;97578.00;5056302;28;20259;-65
2021/10/31 05:46:49;;;;;;;9.87;8.40;;;;;;;9.32;100.00;97567.19;5056106;28;20221;-65
2021/10/31 05:49:17;;;;;;;9.67;8.63;;;;;;;9.23;100.00;97562.59;5057358;28;20216;-65
2021/10/31 05:51:44;;;;;;;11.17;8.63;;;;;;;9.12;100.00;97566.00;5056070;28;20221;-65
2021/10/31 05:54:10;;;;;;;10.00;8.93;;;;;;;9.07;100.00;97562.00;5055979;28;20589;-65
2021/10/31 05:56:37;;;;;;;11.13;9.30;;;;;;;9.01;100.00;97562.47;5056240;28;20225;-65
2021/10/31 05:59:04;;;;;;;9.47;8.50;;;;;;;8.97;100.00;97567.09;5055782;28;20227;-65
2021/10/31 06:01:31;;;;;;;10.93;9.30;;;;;;;8.97;100.00;97561.84;5055811;28;20672;-65
2021/10/31 06:03:57;;;;;;;11.43;9.30;;;;;;;9.03;100.00;97561.41;5055841;28;20214;-65
2021/10/31 06:06:26;;;;;;;9.87;8.87;;;;;;;9.01;100.00;97573.00;5055786;28;20681;-65
2021/10/31 06:08:52;;;;;;;10.27;8.83;;;;;;;9.04;100.00;97573.63;5057335;28;20270;-65
2021/10/31 06:11:19;;;;;;;10.83;9.23;;;;;;;9.08;100.00;97575.09;5055877;28;20225;-65
2021/10/31 06:13:46;;;;;;;10.80;8.90;;;;;;;9.18;100.00;97572.63;5055191;28;20212;-64
2021/10/31 06:16:13;;;;;;;11.67;8.80;;;;;;;9.28;100.00;97571.00;5055796;28;20582;-64
2021/10/31 06:18:41;;;;;;;10.03;8.80;;;;;;;9.38;100.00;97564.09;5057237;28;20251;-64
2021/10/31 06:21:07;;;;;;;9.33;8.17;;;;;;;9.46;100.00;97574.91;5055588;28;20590;-64
2021/10/31 06:23:35;;;;;;;9.63;8.63;;;;;;;9.45;100.00;97567.97;5054872;28;20219;-65
2021/10/31 06:26:03;;;;;;;9.87;8.37;;;;;;;9.45;100.00;97568.81;5055139;28;20664;-65
2021/10/31 06:28:29;;;;;;;12.70;9.57;;;;;;;9.37;100.00;97568.53;5056926;28;20225;-64
2021/10/31 06:30:56;;;;;;;9.87;8.70;;;;;;;9.43;100.00;97569.88;5055289;28;20795;-64
2021/10/31 06:33:22;;;;;;;9.53;8.53;;;;;;;9.48;100.00;97568.59;5055229;28;20264;-65
2021/10/31 06:35:50;;;;;;;8.40;7.57;;;;;;;9.53;100.00;97566.44;5055517;28;20251;-65
2021/10/31 06:38:17;;;;;;;9.47;7.90;;;;;;;9.55;100.00;97564.53;5056801;28;20217;-65
2021/10/31 06:40:45;;;;;;;9.07;7.80;;;;;;;9.61;100.00;97560.63;5051879;28;20219;-66
2021/10/31 06:43:11;;;;;;;9.67;8.67;;;;;;;9.63;100.00;97566.63;5045666;28;20579;-64
2021/10/31 06:45:38;;;;;;;8.97;7.97;;;;;;;9.65;100.00;97572.59;5054933;28;20239;-64
2021/10/31 06:48:06;;;;;;;10.23;8.37;;;;;;;9.68;100.00;97569.75;5056522;28;20209;-64
2021/10/31 06:50:32;;;;;;;10.13;9.00;;;;;;;9.69;100.00;97566.16;5053596;28;20549;-64
2021/10/31 06:52:59;;;;;;;10.63;8.37;;;;;;;9.70;100.00;97567.84;5055222;28;20215;-65
2021/10/31 06:55:26;;;;;;;9.33;8.37;;;;;;;9.68;100.00;97565.31;5054911;28;20693;-64
2021/10/31 06:57:55;;;;;;;9.20;8.13;;;;;;;9.69;100.00;97567.00;5056561;28;20272;-64
2021/10/31 07:00:23;;;;;;;9.97;8.53;;;;;;;9.73;100.00;97564.97;5055106;28;20239;-64
2021/10/31 07:02:49;;;;;;;9.17;7.90;;;;;;;9.77;100.00;97562.00;5055063;28;20217;-64
2021/10/31 07:05:16;;;;;;;11.23;8.27;;;;;;;9.79;100.00;97573.25;5054843;28;20243;-64
2021/10/31 07:07:42;;;;;;;9.30;8.30;;;;;;;9.80;100.00;97563.56;5056290;28;20216;-64
2021/10/31 07:10:09;;;;;;;9.17;8.27;;;;;;;9.83;100.00;97571.22;5054633;28;20220;-64
2021/10/31 07:12:36;;;;;;;9.50;8.20;;;;;;;9.87;100.00;97577.97;5054630;28;20212;-64
2021/10/31 07:15:05;;;;;;;9.33;7.87;;;;;;;9.90;100.00;97583.03;5054635;28;20280;-64
2021/10/31 07:17:32;;;;;;;8.67;7.77;;;;;;;9.90;100.00;97575.13;5054458;28;20233;-64
2021/10/31 07:19:58;;;;;;;10.27;8.97;;;;;;;9.92;100.00;97578.47;5054780;28;20220;-65
2021/10/31 07:22:24;;;;;;;9.53;8.53;;;;;;;9.98;100.00;97578.03;5054679;28;20221;-64
2021/10/31 07:24:54;;;;;;;9.33;8.10;;;;;;;9.98;100.00;97572.75;5054108;28;20261;-65
2021/10/31 07:27:21;;;;;;;9.73;8.37;;;;;;;10.01;100.00;97583.06;5054936;28;20239;-64
2021/10/31 07:29:47;;;;;;;11.23;8.80;;;;;;;10.08;100.00;97573.75;5039793;28;20223;-64
2021/10/31 07:32:15;;;;;;;9.33;8.40;;;;;;;10.17;100.00;97565.13;5054290;28;20215;-65
2021/10/31 07:34:41;;;;;;;11.47;8.80;;;;;;;10.26;100.00;97557.34;5054401;28;20569;-64
2021/10/31 07:37:08;;;;;;;9.97;8.20;;;;;;;10.34;100.00;97564.69;5055460;28;20213;-64
2021/10/31 07:39:35;;;;;;;10.47;8.67;;;;;;;10.41;100.00;97558.78;5054318;28;20222;-64
2021/10/31 07:42:02;;;;;;;8.20;7.40;;;;;;;10.50;100.00;97554.59;5054049;28;20222;-64
2021/10/31 07:44:28;;;;;;;8.37;7.57;;;;;;;10.59;100.00;97554.72;5052296;28;20218;-64
2021/10/31 07:46:55;;;;;;;9.37;8.13;;;;;;;10.70;100.00;97559.19;5054785;28;20222;-64
2021/10/31 07:49:22;;;;;;;7.87;6.97;;;;;;;10.80;100.00;97552.19;5055067;28;20587;-64
2021/10/31 07:51:49;;;;;;;8.30;7.37;;;;;;;10.90;100.00;97553.16;5054019;28;20749;-64
2021/10/31 07:54:17;;;;;;;7.77;6.93;;;;;;;10.96;100.00;97548.19;5054253;28;20216;-64
2021/10/31 07:56:44;;;;;;;9.30;7.60;;;;;;;11.01;100.00;97539.91;5042434;28;20220;-64
2021/10/31 07:59:10;;;;;;;8.67;7.70;;;;;;;11.01;100.00;97532.00;5054624;28;20235;-64
2021/10/31 08:01:37;;;;;;;10.07;8.57;;;;;;;11.02;100.00;97525.72;5053927;28;20220;-64
2021/10/31 08:04:04;;;;;;;9.13;8.23;;;;;;;11.01;100.00;97518.78;5054223;28;20315;-65
2021/10/31 08:06:32;;;;;;;9.03;8.13;;;;;;;11.01;100.00;97521.41;5054029;28;20246;-64
2021/10/31 08:08:58;;;;;;;8.23;7.33;;;;;;;11.01;100.00;97518.78;5036549;28;20209;-64
2021/10/31 08:11:25;;;;;;;7.30;6.60;;;;;;;11.03;100.00;97516.84;5053964;28;20212;-64
2021/10/31 08:13:51;;;;;;;7.77;7.07;;;;;;;11.07;100.00;97519.09;5054176;28;20218;-64
2021/10/31 08:16:20;;;;;;;7.23;6.53;;;;;;;11.11;100.00;97503.81;5054036;28;20219;-64
2021/10/31 08:18:47;;;;;;;8.10;7.30;;;;;;;11.15;100.00;97505.25;5052988;28;20235;-63
2021/10/31 08:21:13;;;;;;;8.17;7.37;;;;;;;11.21;100.00;97507.41;5051938;28;20225;-63
2021/10/31 08:23:41;;;;;;;8.03;7.13;;;;;;;11.23;100.00;97503.69;5052796;28;20251;-64
2021/10/31 08:26:08;;;;;;;8.23;6.67;;;;;;;11.33;100.00;97501.13;5050107;28;20703;-64
2021/10/31 08:28:38;;;;;;;7.17;6.47;;;;;;;11.44;100.00;97493.16;5053823;28;20214;-65
2021/10/31 08:31:05;;;;;;;7.63;6.83;;;;;;;11.55;100.00;97498.38;5052681;28;20313;-64
2021/10/31 08:33:33;;;;;;;7.07;6.37;;;;;;;11.66;100.00;97506.28;5053024;28;20220;-64
2021/10/31 08:36:00;;;;;;;7.90;6.60;;;;;;;11.80;100.00;97513.94;5050702;28;20225;-64
2021/10/31 08:38:27;;;;;;;8.03;7.23;;;;;;;11.96;100.00;97514.31;5056825;28;20222;-64
2021/10/31 08:40:56;;;;;;;7.67;6.90;;;;;;;12.02;100.00;97513.78;5056338;28;20228;-64
2021/10/31 08:43:24;;;;;;;7.77;6.83;;;;;;;12.06;100.00;97515.22;5056532;28;20218;-64
2021/10/31 08:45:52;;;;;;;8.13;6.87;;;;;;;12.04;100.00;97512.69;5055636;28;20238;-64
2021/10/31 08:48:18;;;;;;;7.53;6.80;;;;;;;12.00;100.00;97502.50;5055137;28;20219;-64
2021/10/31 08:50:47;;;;;;;7.57;6.60;;;;;;;11.98;100.00;97493.84;5056052;28;20597;-64
2021/10/31 08:53:14;;;;;;;7.53;6.83;;;;;;;12.01;100.00;97496.22;5056049;28;21087;-64
2021/10/31 08:55:41;;;;;;;7.47;6.23;;;;;;;12.04;100.00;97496.81;5055251;28;20215;-64
2021/10/31 08:58:10;;;;;;;7.60;6.83;;;;;;;12.09;100.00;97493.75;5054450;28;20219;-63
2021/10/31 09:00:37;;;;;;;6.80;6.20;;;;;;;12.11;100.00;97487.38;5056898;28;20222;-64
2021/10/31 09:03:05;;;;;;;7.07;6.23;;;;;;;12.15;100.00;97482.63;5053938;28;20698;-64
2021/10/31 09:05:32;;;;;;;7.03;5.73;;;;;;;12.18;100.00;97485.03;5055378;28;20331;-63
2021/10/31 09:07:58;;;;;;;7.57;5.47;;;;;;;12.21;100.00;97474.16;5057162;28;20210;-64
2021/10/31 09:10:25;;;;;;;5.97;5.37;;;;;;;12.25;100.00;97478.25;5054125;28;20703;-64
2021/10/31 09:12:51;;;;;;;6.17;5.57;;;;;;;12.23;100.00;97473.06;5048574;28;20220;-65
2021/10/31 09:15:19;;;;;;;6.23;5.63;;;;;;;12.29;100.00;97467.25;5055675;28;20222;-64
2021/10/31 09:17:46;;;;;;;6.10;5.50;;;;;;;12.33;100.00;97470.47;5056956;28;20291;-65
2021/10/31 09:20:13;;;;;;;6.57;5.87;;;;;;;12.39;100.00;97461.97;5055737;28;20611;-66
2021/10/31 09:22:39;;;;;;;6.17;5.57;;;;;;;12.59;100.00;97464.56;5055664;28;20219;-64
2021/10/31 09:25:06;;;;;;;6.10;5.50;;;;;;;12.70;100.00;97458.31;5055426;28;20231;-65
2021/10/31 09:27:33;;;;;;;6.03;5.43;;;;;;;12.75;100.00;97456.09;5056417;28;20213;-64
2021/10/31 09:29:59;;;;;;;6.23;5.63;;;;;;;12.82;100.00;97454.59;5053988;28;20225;-64
2021/10/31 09:32:49;;;;;;;5.83;5.23;;;;;;;12.89;100.00;97453.91;5055463;28;20208;-64
2021/10/31 09:35:19;;;;;;;6.60;5.83;;;;;;;12.96;100.00;97459.56;5054580;28;20223;-65
2021/10/31 09:37:46;;;;;;;6.93;6.10;;;;;;;12.98;100.00;97453.13;5054196;28;20239;-65
2021/10/31 09:40:14;;;;;;;6.83;5.37;;;;;;;13.02;100.00;97456.34;5045950;28;20224;-65
2021/10/31 09:42:40;;;;;;;5.93;5.30;;;;;;;13.08;100.00;97451.31;5050851;28;20242;-65
2021/10/31 09:45:11;;;;;;;6.00;5.40;;;;;;;13.18;100.00;97438.06;5055586;28;20237;-66
2021/10/31 09:47:41;;;;;;;5.30;4.80;;;;;;;13.29;100.00;97441.44;5055006;28;20216;-65
2021/10/31 09:50:09;;;;;;;5.07;4.33;;;;;;;13.37;100.00;97433.59;5054381;28;20224;-65
2021/10/31 09:52:36;;;;;;;5.00;4.50;;;;;;;13.55;100.00;97436.38;5055118;28;20237;-65
2021/10/31 09:55:04;;;;;;;5.23;4.57;;;;;;;13.77;100.00;97431.63;5055112;28;20211;-64
2021/10/31 09:57:31;;;;;;;5.90;4.43;;;;;;;13.84;100.00;97426.56;5053073;28;20217;-65
2021/10/31 09:59:59;;;;;;;4.53;4.13;;;;;;;13.95;100.00;97421.09;5054452;28;20278;-64
2021/10/31 10:05:22;;;;;;;5.00;4.10;;;;;;;14.07;99.91;97404.84;5041378;28;20223;-65
2021/10/31 10:08:08;;;;;;;5.13;4.63;;;;;;;14.20;98.62;97402.72;5054788;28;20213;-64
2021/10/31 10:10:46;;;;;;;6.07;4.50;;;;;;;14.34;98.01;97396.06;5055180;28;20589;-64
2021/10/31 10:13:17;;;;;;;4.40;4.00;;;;;;;14.41;98.51;97394.50;5042322;28;20270;-64
2021/10/31 10:15:43;;;;;;;5.03;4.53;;;;;;;14.58;98.05;97391.06;5054576;28;20628;-64
2021/10/31 10:18:10;;;;;;;4.33;3.93;;;;;;;14.62;97.55;97376.50;5055514;28;20213;-64
2021/10/31 10:20:38;;;;;;;4.47;4.07;;;;;;;14.68;96.93;97394.50;5056776;28;20228;-64
2021/10/31 10:23:09;;;;;;;4.30;3.90;;;;;;;14.74;96.87;97378.78;5053900;28;20220;-63
2021/10/31 10:25:40;;;;;;;5.90;4.57;;;;;;;14.82;97.79;97380.69;5051593;28;20246;-63
2021/10/31 10:28:23;;;;;;;5.60;4.63;;;;;;;14.89;97.19;97379.09;5051334;28;20550;-64
2021/10/31 10:30:49;;;;;;;4.33;3.93;;;;;;;14.94;96.81;97375.03;5055249;28;20672;-64
2021/10/31 10:33:21;;;;;;;4.40;4.00;;;;;;;14.98;96.16;97373.72;5054885;28;20694;-64
2021/10/31 10:35:55;;;;;;;5.10;4.57;;;;;;;15.03;95.51;97381.25;5055176;28;20226;-64
2021/10/31 10:38:22;;;;;;;4.87;4.47;;;;;;;15.12;94.61;97375.03;5056006;28;20580;-63
2021/10/31 10:40:48;;;;;;;4.47;4.07;;;;;;;15.18;94.39;97379.72;5054963;28;20222;-63
2021/10/31 10:43:15;;;;;;;4.63;4.23;;;;;;;15.26;93.72;97374.47;5055153;28;20229;-63
2021/10/31 10:45:42;;;;;;;4.50;4.10;;;;;;;15.39;93.39;97367.00;5054804;28;20233;-64
2021/10/31 10:48:09;;;;;;;4.63;4.23;;;;;;;15.48;91.97;97371.38;5055890;28;20312;-64
2021/10/31 10:50:37;;;;;;;4.83;4.33;;;;;;;15.55;91.52;97367.94;5053213;28;20219;-67
2021/10/31 10:53:14;;;;;;;4.90;4.40;;;;;;;15.66;92.05;97359.72;5054442;28;20218;-64
2021/10/31 10:55:41;;;;;;;4.83;4.20;;;;;;;15.79;91.36;97353.94;5054656;28;20229;-65
2021/10/31 10:58:11;;;;;;;4.50;4.10;;;;;;;15.87;90.64;97346.00;5055181;28;20663;-65
2021/10/31 11:00:40;;;;;;;4.10;3.70;;;;;;;15.93;90.27;97342.69;5054135;28;20684;-65
2021/10/31 11:03:08;;;;;;;5.67;4.20;;;;;;;16.04;89.59;97333.44;5046509;28;20231;-65
2021/10/31 11:05:36;;;;;;;4.90;4.03;;;;;;;16.16;88.56;97326.84;5041125;28;20240;-65
2021/10/31 11:08:11;;;;;;;4.47;4.07;;;;;;;16.35;88.53;97329.25;5043705;28;20216;-65
2021/10/31 11:10:45;;;;;;;5.10;4.10;;;;;;;16.51;87.37;97316.00;5039524;28;20214;-65
2021/10/31 11:13:11;;;;;;;4.40;4.00;;;;;;;16.66;87.80;97314.41;5039973;28;20220;-65
2021/10/31 11:15:38;;;;;;;3.70;3.40;;;;;;;16.71;85.40;97305.91;5043845;28;20228;-65
2021/10/31 11:18:08;;;;;;;3.07;2.87;;;;;;;16.84;84.62;97307.09;5040943;28;20215;-65
2021/10/31 11:20:37;;;;;;;3.37;3.07;;;;;;;16.98;82.67;97297.59;5039512;28;20692;-65
2021/10/31 11:23:05;;;;;;;3.13;2.83;;;;;;;17.05;81.44;97285.25;5039801;28;20591;-65
2021/10/31 11:25:35;;;;;;;2.80;2.40;;;;;;;17.15;81.42;97281.44;5043646;28;20243;-64
2021/10/31 11:28:03;;;;;;;3.33;2.63;;;;;;;17.22;80.92;97279.75;5041264;28;20235;-64
2021/10/31 11:30:33;;;;;;;2.50;2.30;;;;;;;17.28;81.20;97279.09;5045768;28;20623;-64
2021/10/31 11:33:01;;;;;;;2.67;2.37;;;;;;;17.38;77.67;97278.94;5053917;28;20222;-65
2021/10/31 11:35:29;;;;;;;3.00;2.70;;;;;;;17.39;77.06;97270.75;5052560;28;20586;-64
2021/10/31 11:37:59;;;;;;;2.30;2.10;;;;;;;17.37;77.49;97266.56;5054107;28;20215;-65